Terminal Aerodrome Forecast
Issued by NWS Cleveland, OH

Home | Current Version | Previous Version | Text Only | Print | Product List | Glossary On
Versions: 1 2 3 4 5 6 7 8 9 10 11 12 13 14 15 16 17 18 19 20 21 22 23 24 25 26 27 28 29 30 31
000
FTUS41 KCLE 212300
TAFCLE
TAF
KCLE 212324Z 2200/2306 30015G22KT P6SM VCSH SCT025 OVC045
      TEMPO 2200/2204 3SM -SHRA BKN022
     FM220400 33012G18KT P6SM VCSH BKN025
     FM221800 33012KT P6SM BKN035
     FM230000 30006KT P6SM SCT040=

USA.gov is the U.S. government's official web portal to all federal, state and local government web resources and services.